• Join FlightAware (Why Join?)
  • Login
  • US Flag 
07:52AM EDT


 

Airport Tracker/Info


-or-


 

Live Flight TrackerFlight Track Log ✈ SKW5517 ✈ 25-Apr-2013 ✈ KDEN - KPSP

Flight Track Log - Related Links

Times and Time Zones

All times are in EDT time to prevent confusion due to time zone crossing. See the SKW5517 flight status page for this flight to view local times or setup timezone preferences in your user account.

Time Position Orientation Groundspeed Altitude Reporting Facility
EDT Latitude Longitude Course Direction KTS MPH feet Rate Location/Type
09:43PM 39.6873 -105.1882 247° West  Level FlightAware Approximate
09:44PM 39.6491 -105.3196 247° West  Level FlightAware Approximate
09:45PM 39.6061 -105.4486 247° West  Level FlightAware Approximate
09:46PM 39.5613 -105.5604 255° West  Level FlightAware Approximate
09:47PM 39.5249 -105.6921 247° West  Level FlightAware Approximate
09:48PM 39.4891 -105.8233 251° West  Level FlightAware Approximate
09:49PM 39.4531 -105.9555 251° West  Level FlightAware Approximate
09:50PM 39.4119 -106.0833 250° West  Level FlightAware Approximate
09:51PM 39.3740 -106.2145 249° West  Level FlightAware Approximate
09:52PM 39.3348 -106.3450 249° West  Level FlightAware Approximate
09:53PM 39.2978 -106.4749 251° West  Level FlightAware Approximate
09:54PM 39.2626 -106.6072 251° West  Level FlightAware Approximate
09:55PM 39.2233 -106.7367 237° Southwest  Level FlightAware Approximate
09:56PM 39.1530 -106.8419 231° Southwest  Level FlightAware Approximate
09:57PM 39.0859 -106.9514 232° Southwest  Level FlightAware Approximate
09:58PM 39.0197 -107.0616 232° Southwest  Level FlightAware Approximate
09:59PM 38.9481 -107.1659 228° Southwest  Level FlightAware Approximate
10:00PM 38.8761 -107.2698 228° Southwest  Level FlightAware Approximate
10:01PM 38.8156 -107.3848 228° Southwest  Level FlightAware Approximate
10:02PM 38.7434 -107.4882 228° Southwest  Level FlightAware Approximate
10:03PM 38.6725 -107.5929 231° Southwest  Level FlightAware Approximate
10:04PM 38.6038 -107.7000 231° Southwest  Level FlightAware Approximate
10:05PM 38.5350 -107.8068 231° Southwest  Level FlightAware Approximate
10:06PM 38.4661 -107.9135 230° Southwest  Level FlightAware Approximate
10:07PM 38.3971 -108.0199 230° Southwest  Level FlightAware Approximate
10:08PM 38.3277 -108.1258 230° Southwest  Level FlightAware Approximate
10:09PM 38.2580 -108.2314 230° Southwest  Level FlightAware Approximate
10:10PM 38.1883 -108.3367 230° Southwest  Level FlightAware Approximate
10:11PM 38.1184 -108.4418 230° Southwest  Level FlightAware Approximate
10:12PM 38.0485 -108.5467 230° Southwest  Level FlightAware Approximate
10:13PM 37.9784 -108.6514 230° Southwest  Level FlightAware Approximate
10:14PM 37.9083 -108.7560 230° Southwest  Level FlightAware Approximate
10:15PM 37.8381 -108.8603 230° Southwest  Level FlightAware Approximate
10:16PM 37.7735 -108.9698 238° Southwest  Level FlightAware Approximate
10:17PM 37.7156 -109.0854 237° Southwest  Level FlightAware Approximate
10:18PM 37.6573 -109.2006 237° Southwest  Level FlightAware Approximate
10:19PM 37.5989 -109.3156 237° Southwest  Level FlightAware Approximate
10:20PM 37.5403 -109.4305 237° Southwest  Level FlightAware Approximate
10:21PM 37.4817 -109.5451 237° Southwest  Level FlightAware Approximate
10:22PM 37.4229 -109.6596 237° Southwest  Level FlightAware Approximate
10:23PM 37.3640 -109.7739 237° Southwest  Level FlightAware Approximate
10:24PM 37.3050 -109.8880 237° Southwest  Level FlightAware Approximate
10:25PM 37.2459 -110.0020 237° Southwest  Level FlightAware Approximate
10:26PM 37.1867 -110.1157 237° Southwest  Level FlightAware Approximate
10:27PM 37.1274 -110.2293 237° Southwest  Level FlightAware Approximate
10:28PM 37.0680 -110.3427 237° Southwest  Level FlightAware Approximate
10:29PM 37.0084 -110.4560 237° Southwest  Level FlightAware Approximate
10:30PM 36.9488 -110.5690 237° Southwest  Level FlightAware Approximate
10:31PM 36.8890 -110.6819 237° Southwest  Level FlightAware Approximate
10:32PM 36.8292 -110.7946 236° Southwest  Level FlightAware Approximate
10:33PM 36.7692 -110.9071 236° Southwest  Level FlightAware Approximate
10:34PM 36.7092 -111.0194 236° Southwest  Level FlightAware Approximate
10:35PM 36.6490 -111.1316 236° Southwest  Level FlightAware Approximate
10:36PM 36.5887 -111.2436 236° Southwest  Level FlightAware Approximate
10:37PM 36.5284 -111.3554 236° Southwest  Level FlightAware Approximate
10:38PM 36.4679 -111.4671 236° Southwest  Level FlightAware Approximate
10:39PM 36.4068 -111.5781 236° Southwest  Level FlightAware Approximate
10:40PM 36.3454 -111.6888 235° Southwest  Level FlightAware Approximate
10:41PM 36.2839 -111.7993 235° Southwest  Level FlightAware Approximate
10:42PM 36.2223 -111.9097 235° Southwest  Level FlightAware Approximate
10:43PM 36.1606 -112.0199 235° Southwest  Level FlightAware Approximate
10:44PM 36.0988 -112.1299 235° Southwest  Level FlightAware Approximate
10:45PM 36.0369 -112.2397 235° Southwest  Level FlightAware Approximate
10:46PM 35.9749 -112.3494 235° Southwest  Level FlightAware Approximate
10:47PM 35.9128 -112.4588 235° Southwest  Level FlightAware Approximate
10:48PM 35.8506 -112.5682 235° Southwest  Level FlightAware Approximate
10:49PM 35.7883 -112.6773 235° Southwest  Level FlightAware Approximate
10:50PM 35.7259 -112.7863 235° Southwest  Level FlightAware Approximate
10:51PM 35.6634 -112.8951 235° Southwest  Level FlightAware Approximate
10:52PM 35.6008 -113.0037 235° Southwest  Level FlightAware Approximate
10:53PM 35.5382 -113.1122 235° Southwest  Level FlightAware Approximate
10:54PM 35.4754 -113.2204 235° Southwest  Level FlightAware Approximate
10:55PM 35.4125 -113.3286 235° Southwest  Level FlightAware Approximate
10:56PM 35.3511 -113.4379 236° Southwest  Level FlightAware Approximate
10:57PM 35.2900 -113.5473 236° Southwest  Level FlightAware Approximate
10:58PM 35.2287 -113.6566 236° Southwest  Level FlightAware Approximate
10:59PM 35.1674 -113.7657 236° Southwest  Level FlightAware Approximate
11:00PM 35.1060 -113.8747 235° Southwest  Level FlightAware Approximate
11:01PM 35.0445 -113.9835 235° Southwest  Level FlightAware Approximate
11:02PM 34.9829 -114.0922 235° Southwest  Level FlightAware Approximate
11:03PM 34.9194 -114.1991 233° Southwest  Level FlightAware Approximate
11:04PM 34.8532 -114.3035 231° Southwest  Level FlightAware Approximate
11:05PM 34.7881 -114.4087 234° Southwest  Level FlightAware Approximate
11:06PM 34.7235 -114.5084 232° Southwest  Level FlightAware Approximate
11:07PM 34.6573 -114.6124 232° Southwest  Level FlightAware Approximate
11:08PM 34.5880 -114.7135 229° Southwest  Level FlightAware Approximate
11:09PM 34.5239 -114.8188 239° Southwest  Level FlightAware Approximate
11:10PM 34.4557 -114.9205 230° Southwest  Level FlightAware Approximate
11:11PM 34.3855 -115.0203 229° Southwest  Level FlightAware Approximate
11:12PM 34.3151 -115.1198 239° Southwest  Level FlightAware Approximate
11:13PM 34.2571 -115.2301 229° Southwest  Level FlightAware Approximate
11:14PM 34.1864 -115.3292 229° Southwest  Level FlightAware Approximate
11:15PM 34.1156 -115.4282 229° Southwest  Level FlightAware Approximate
11:16PM 34.0472 -115.5293 231° Southwest  Level FlightAware Approximate
11:17PM 33.9779 -115.6296 228° Southwest  Level FlightAware Approximate
11:18PM 33.9053 -115.7263 228° Southwest  Level FlightAware Approximate
11:19PM 33.9000 -115.8543 270° West  Level FlightAware Approximate
11:20PM 33.8957 -115.9839 253° West  Level FlightAware Approximate
11:21PM 33.8783 -116.1117 262° West  Level FlightAware Approximate
11:22PM 33.8608 -116.2401 253° West  Level FlightAware Approximate
11:23PM 33.8415 -116.3674 259° West  Level FlightAware Approximate
11:24PM 33.8178 -116.4945 256° West  Level FlightAware Approximate
11:25PM 33.8167 -116.5000 256° West  Level FlightAware Approximate
11:26PM 33.8297 -116.5067 256° West  Level Estimated
11:27PM 33.8297 -116.5067 256° West  Level Estimated